sensor_id;sensor_type;location;lat;lon;timestamp;P1;durP1;ratioP1;P2;durP2;ratioP2
50781;SDS011;36749;37.428;-121.972;2023-01-29T00:00:01;13.95;;;3.70;;
50781;SDS011;36749;37.428;-121.972;2023-01-29T00:02:35;19.57;;;3.93;;
50781;SDS011;36749;37.428;-121.972;2023-01-29T00:05:01;12.02;;;3.35;;
50781;SDS011;36749;37.428;-121.972;2023-01-29T00:07:28;19.75;;;4.10;;
50781;SDS011;36749;37.428;-121.972;2023-01-29T00:09:54;11.68;;;3.30;;
50781;SDS011;36749;37.428;-121.972;2023-01-29T00:12:21;13.60;;;3.40;;
50781;SDS011;36749;37.428;-121.972;2023-01-29T00:14:47;14.40;;;3.47;;
50781;SDS011;36749;37.428;-121.972;2023-01-29T00:17:14;12.00;;;3.28;;
50781;SDS011;36749;37.428;-121.972;2023-01-29T00:19:40;13.07;;;3.40;;
50781;SDS011;36749;37.428;-121.972;2023-01-29T00:22:06;17.70;;;3.03;;
50781;SDS011;36749;37.428;-121.972;2023-01-29T00:24:32;12.80;;;2.97;;
50781;SDS011;36749;37.428;-121.972;2023-01-29T00:26:58;17.33;;;3.38;;
50781;SDS011;36749;37.428;-121.972;2023-01-29T00:29:25;11.00;;;2.92;;
50781;SDS011;36749;37.428;-121.972;2023-01-29T00:31:51;27.45;;;3.42;;
50781;SDS011;36749;37.428;-121.972;2023-01-29T00:34:17;8.52;;;2.58;;
50781;SDS011;36749;37.428;-121.972;2023-01-29T00:36:43;14.55;;;2.58;;
50781;SDS011;36749;37.428;-121.972;2023-01-29T00:39:10;15.27;;;2.70;;
50781;SDS011;36749;37.428;-121.972;2023-01-29T00:41:36;16.75;;;4.03;;
50781;SDS011;36749;37.428;-121.972;2023-01-29T00:47:05;13.00;;;3.28;;
50781;SDS011;36749;37.428;-121.972;2023-01-29T00:50:09;19.95;;;3.53;;
50781;SDS011;36749;37.428;-121.972;2023-01-29T00:52:36;21.50;;;4.15;;
50781;SDS011;36749;37.428;-121.972;2023-01-29T00:55:05;23.08;;;3.58;;
50781;SDS011;36749;37.428;-121.972;2023-01-29T00:57:33;19.92;;;3.25;;
50781;SDS011;36749;37.428;-121.972;2023-01-29T01:00:00;15.05;;;2.72;;
50781;SDS011;36749;37.428;-121.972;2023-01-29T01:02:27;15.77;;;3.75;;
50781;SDS011;36749;37.428;-121.972;2023-01-29T01:05:12;16.15;;;3.83;;
50781;SDS011;36749;37.428;-121.972;2023-01-29T01:07:46;15.90;;;3.53;;
50781;SDS011;36749;37.428;-121.972;2023-01-29T01:10:14;17.75;;;5.70;;
50781;SDS011;36749;37.428;-121.972;2023-01-29T01:12:53;19.13;;;3.03;;
50781;SDS011;36749;37.428;-121.972;2023-01-29T01:15:27;16.70;;;2.88;;
50781;SDS011;36749;37.428;-121.972;2023-01-29T01:17:56;15.93;;;3.10;;
50781;SDS011;36749;37.428;-121.972;2023-01-29T01:20:24;15.45;;;2.75;;
50781;SDS011;36749;37.428;-121.972;2023-01-29T01:22:55;19.45;;;4.07;;
50781;SDS011;36749;37.428;-121.972;2023-01-29T01:25:22;15.18;;;3.47;;
50781;SDS011;36749;37.428;-121.972;2023-01-29T01:27:52;15.48;;;2.70;;
50781;SDS011;36749;37.428;-121.972;2023-01-29T01:30:19;17.52;;;2.70;;
50781;SDS011;36749;37.428;-121.972;2023-01-29T01:32:45;11.50;;;3.13;;
50781;SDS011;36749;37.428;-121.972;2023-01-29T01:35:12;18.63;;;4.15;;
50781;SDS011;36749;37.428;-121.972;2023-01-29T01:37:39;20.83;;;3.33;;
50781;SDS011;36749;37.428;-121.972;2023-01-29T01:40:07;19.05;;;3.38;;
50781;SDS011;36749;37.428;-121.972;2023-01-29T01:42:52;13.27;;;2.88;;
50781;SDS011;36749;37.428;-121.972;2023-01-29T01:53:21;12.93;;;3.42;;
50781;SDS011;36749;37.428;-121.972;2023-01-29T01:56:00;21.50;;;3.67;;
50781;SDS011;36749;37.428;-121.972;2023-01-29T01:59:01;19.85;;;3.45;;
50781;SDS011;36749;37.428;-121.972;2023-01-29T02:01:21;15.93;;;3.00;;
50781;SDS011;36749;37.428;-121.972;2023-01-29T02:04:01;11.63;;;2.70;;
50781;SDS011;36749;37.428;-121.972;2023-01-29T02:06:49;18.75;;;3.67;;
50781;SDS011;36749;37.428;-121.972;2023-01-29T02:09:36;17.80;;;3.30;;
50781;SDS011;36749;37.428;-121.972;2023-01-29T02:12:06;19.15;;;3.53;;
50781;SDS011;36749;37.428;-121.972;2023-01-29T02:14:34;15.90;;;2.90;;
50781;SDS011;36749;37.428;-121.972;2023-01-29T02:17:12;24.60;;;3.63;;
50781;SDS011;36749;37.428;-121.972;2023-01-29T02:28:18;19.60;;;4.10;;
50781;SDS011;36749;37.428;-121.972;2023-01-29T02:30:52;18.73;;;3.10;;
50781;SDS011;36749;37.428;-121.972;2023-01-29T02:33:47;15.52;;;3.17;;
50781;SDS011;36749;37.428;-121.972;2023-01-29T02:36:31;18.88;;;3.33;;
50781;SDS011;36749;37.428;-121.972;2023-01-29T02:42:12;12.77;;;2.50;;
50781;SDS011;36749;37.428;-121.972;2023-01-29T02:45:21;21.90;;;3.58;;
50781;SDS011;36749;37.428;-121.972;2023-01-29T02:47:57;18.40;;;3.30;;
50781;SDS011;36749;37.428;-121.972;2023-01-29T02:50:47;21.85;;;3.40;;
50781;SDS011;36749;37.428;-121.972;2023-01-29T02:53:24;16.02;;;3.65;;
50781;SDS011;36749;37.428;-121.972;2023-01-29T02:58:30;11.10;;;2.75;;
50781;SDS011;36749;37.428;-121.972;2023-01-29T03:01:01;10.93;;;2.72;;
50781;SDS011;36749;37.428;-121.972;2023-01-29T03:03:36;13.55;;;2.65;;
50781;SDS011;36749;37.428;-121.972;2023-01-29T03:06:06;18.63;;;2.83;;
50781;SDS011;36749;37.428;-121.972;2023-01-29T03:08:46;12.77;;;3.00;;
50781;SDS011;36749;37.428;-121.972;2023-01-29T03:11:18;16.73;;;2.92;;
50781;SDS011;36749;37.428;-121.972;2023-01-29T03:18:56;15.60;;;2.75;;
50781;SDS011;36749;37.428;-121.972;2023-01-29T03:21:28;18.40;;;3.40;;
50781;SDS011;36749;37.428;-121.972;2023-01-29T03:24:17;18.20;;;2.97;;
50781;SDS011;36749;37.428;-121.972;2023-01-29T03:27:06;17.58;;;2.70;;
50781;SDS011;36749;37.428;-121.972;2023-01-29T03:29:52;6.45;;;2.15;;
50781;SDS011;36749;37.428;-121.972;2023-01-29T03:32:40;16.60;;;3.17;;
50781;SDS011;36749;37.428;-121.972;2023-01-29T03:35:09;13.65;;;3.15;;
50781;SDS011;36749;37.428;-121.972;2023-01-29T03:37:40;15.75;;;3.13;;
50781;SDS011;36749;37.428;-121.972;2023-01-29T03:40:09;15.60;;;3.03;;
50781;SDS011;36749;37.428;-121.972;2023-01-29T03:45:33;15.85;;;3.05;;
50781;SDS011;36749;37.428;-121.972;2023-01-29T03:48:10;10.10;;;2.47;;
50781;SDS011;36749;37.428;-121.972;2023-01-29T03:51:04;14.73;;;2.85;;
50781;SDS011;36749;37.428;-121.972;2023-01-29T03:56:43;14.27;;;3.00;;
50781;SDS011;36749;37.428;-121.972;2023-01-29T04:04:13;17.15;;;2.83;;
50781;SDS011;36749;37.428;-121.972;2023-01-29T04:06:42;13.32;;;3.28;;
50781;SDS011;36749;37.428;-121.972;2023-01-29T04:09:21;13.10;;;2.75;;
50781;SDS011;36749;37.428;-121.972;2023-01-29T04:12:10;13.02;;;2.83;;
50781;SDS011;36749;37.428;-121.972;2023-01-29T04:14:37;16.45;;;2.70;;
50781;SDS011;36749;37.428;-121.972;2023-01-29T04:17:08;13.43;;;2.72;;
50781;SDS011;36749;37.428;-121.972;2023-01-29T04:19:37;14.90;;;3.17;;
50781;SDS011;36749;37.428;-121.972;2023-01-29T04:22:06;14.35;;;3.35;;
50781;SDS011;36749;37.428;-121.972;2023-01-29T04:24:38;10.20;;;2.70;;
50781;SDS011;36749;37.428;-121.972;2023-01-29T04:47:02;14.60;;;4.10;;
50781;SDS011;36749;37.428;-121.972;2023-01-29T04:52:17;15.88;;;3.60;;
50781;SDS011;36749;37.428;-121.972;2023-01-29T04:55:02;12.95;;;3.58;;
50781;SDS011;36749;37.428;-121.972;2023-01-29T05:00:14;18.13;;;2.85;;
50781;SDS011;36749;37.428;-121.972;2023-01-29T05:02:53;13.23;;;2.92;;
50781;SDS011;36749;37.428;-121.972;2023-01-29T05:05:19;13.55;;;2.72;;
50781;SDS011;36749;37.428;-121.972;2023-01-29T05:07:46;13.40;;;2.90;;
50781;SDS011;36749;37.428;-121.972;2023-01-29T05:10:14;11.98;;;3.00;;
50781;SDS011;36749;37.428;-121.972;2023-01-29T05:12:42;15.15;;;3.05;;
50781;SDS011;36749;37.428;-121.972;2023-01-29T05:15:12;13.45;;;2.42;;
50781;SDS011;36749;37.428;-121.972;2023-01-29T05:17:41;15.45;;;3.33;;
50781;SDS011;36749;37.428;-121.972;2023-01-29T05:20:09;14.25;;;3.00;;
50781;SDS011;36749;37.428;-121.972;2023-01-29T05:22:36;17.40;;;2.92;;
50781;SDS011;36749;37.428;-121.972;2023-01-29T05:25:10;15.20;;;3.33;;
50781;SDS011;36749;37.428;-121.972;2023-01-29T05:27:45;10.02;;;2.75;;
50781;SDS011;36749;37.428;-121.972;2023-01-29T05:30:31;12.25;;;2.85;;
50781;SDS011;36749;37.428;-121.972;2023-01-29T05:32:58;17.63;;;3.38;;
50781;SDS011;36749;37.428;-121.972;2023-01-29T05:35:24;11.30;;;2.90;;
50781;SDS011;36749;37.428;-121.972;2023-01-29T05:37:53;8.25;;;2.60;;
50781;SDS011;36749;37.428;-121.972;2023-01-29T05:40:21;16.63;;;3.38;;
50781;SDS011;36749;37.428;-121.972;2023-01-29T05:42:48;11.35;;;3.45;;
50781;SDS011;36749;37.428;-121.972;2023-01-29T05:45:16;15.80;;;3.35;;
50781;SDS011;36749;37.428;-121.972;2023-01-29T05:47:43;8.48;;;2.65;;
50781;SDS011;36749;37.428;-121.972;2023-01-29T05:50:10;12.55;;;3.35;;
50781;SDS011;36749;37.428;-121.972;2023-01-29T05:52:36;12.13;;;2.58;;
50781;SDS011;36749;37.428;-121.972;2023-01-29T05:55:03;16.25;;;2.67;;
50781;SDS011;36749;37.428;-121.972;2023-01-29T05:57:49;12.32;;;2.83;;
50781;SDS011;36749;37.428;-121.972;2023-01-29T06:00:15;14.02;;;3.22;;
50781;SDS011;36749;37.428;-121.972;2023-01-29T06:02:42;13.13;;;3.22;;
50781;SDS011;36749;37.428;-121.972;2023-01-29T06:05:08;17.85;;;3.25;;
50781;SDS011;36749;37.428;-121.972;2023-01-29T06:07:34;15.10;;;3.33;;
50781;SDS011;36749;37.428;-121.972;2023-01-29T06:10:01;14.80;;;2.85;;
50781;SDS011;36749;37.428;-121.972;2023-01-29T06:12:28;11.43;;;3.33;;
50781;SDS011;36749;37.428;-121.972;2023-01-29T06:14:54;11.00;;;2.85;;
50781;SDS011;36749;37.428;-121.972;2023-01-29T06:17:20;11.13;;;2.75;;
50781;SDS011;36749;37.428;-121.972;2023-01-29T06:19:46;14.80;;;2.85;;
50781;SDS011;36749;37.428;-121.972;2023-01-29T06:22:12;17.85;;;3.47;;
50781;SDS011;36749;37.428;-121.972;2023-01-29T06:24:39;18.00;;;3.03;;
50781;SDS011;36749;37.428;-121.972;2023-01-29T06:27:07;13.30;;;3.30;;
50781;SDS011;36749;37.428;-121.972;2023-01-29T06:29:33;10.15;;;2.72;;
50781;SDS011;36749;37.428;-121.972;2023-01-29T06:31:59;13.30;;;3.65;;
50781;SDS011;36749;37.428;-121.972;2023-01-29T06:34:25;8.80;;;2.67;;
50781;SDS011;36749;37.428;-121.972;2023-01-29T06:36:51;14.95;;;3.78;;
50781;SDS011;36749;37.428;-121.972;2023-01-29T06:39:18;15.43;;;3.08;;
50781;SDS011;36749;37.428;-121.972;2023-01-29T06:41:44;17.15;;;3.13;;
50781;SDS011;36749;37.428;-121.972;2023-01-29T06:44:10;7.95;;;2.78;;
50781;SDS011;36749;37.428;-121.972;2023-01-29T06:46:38;14.18;;;2.75;;
50781;SDS011;36749;37.428;-121.972;2023-01-29T06:49:04;16.75;;;2.65;;
50781;SDS011;36749;37.428;-121.972;2023-01-29T06:51:30;8.60;;;3.00;;
50781;SDS011;36749;37.428;-121.972;2023-01-29T06:53:56;11.27;;;2.60;;
50781;SDS011;36749;37.428;-121.972;2023-01-29T06:56:22;14.27;;;2.30;;
50781;SDS011;36749;37.428;-121.972;2023-01-29T06:58:49;13.40;;;2.83;;
50781;SDS011;36749;37.428;-121.972;2023-01-29T07:01:15;11.32;;;2.42;;
50781;SDS011;36749;37.428;-121.972;2023-01-29T07:03:41;10.32;;;3.08;;
50781;SDS011;36749;37.428;-121.972;2023-01-29T07:06:08;12.07;;;2.88;;
50781;SDS011;36749;37.428;-121.972;2023-01-29T07:08:35;11.60;;;2.83;;
50781;SDS011;36749;37.428;-121.972;2023-01-29T07:11:02;8.38;;;2.70;;
50781;SDS011;36749;37.428;-121.972;2023-01-29T07:13:28;17.00;;;3.92;;
50781;SDS011;36749;37.428;-121.972;2023-01-29T07:15:58;14.65;;;3.03;;
50781;SDS011;36749;37.428;-121.972;2023-01-29T07:18:28;18.63;;;3.85;;
50781;SDS011;36749;37.428;-121.972;2023-01-29T07:20:54;11.50;;;2.92;;
50781;SDS011;36749;37.428;-121.972;2023-01-29T07:23:21;10.75;;;2.20;;
50781;SDS011;36749;37.428;-121.972;2023-01-29T07:25:48;17.83;;;3.70;;
50781;SDS011;36749;37.428;-121.972;2023-01-29T07:28:15;10.75;;;2.42;;
50781;SDS011;36749;37.428;-121.972;2023-01-29T07:30:42;10.85;;;3.20;;
50781;SDS011;36749;37.428;-121.972;2023-01-29T07:33:08;13.20;;;2.45;;
50781;SDS011;36749;37.428;-121.972;2023-01-29T07:35:35;10.43;;;2.78;;
50781;SDS011;36749;37.428;-121.972;2023-01-29T07:38:03;12.48;;;3.03;;
50781;SDS011;36749;37.428;-121.972;2023-01-29T07:40:29;12.10;;;2.42;;
50781;SDS011;36749;37.428;-121.972;2023-01-29T07:42:56;15.40;;;3.05;;
50781;SDS011;36749;37.428;-121.972;2023-01-29T07:45:27;14.07;;;2.85;;
50781;SDS011;36749;37.428;-121.972;2023-01-29T07:47:54;11.98;;;2.55;;
50781;SDS011;36749;37.428;-121.972;2023-01-29T07:50:21;9.43;;;2.42;;
50781;SDS011;36749;37.428;-121.972;2023-01-29T07:52:48;13.50;;;2.28;;
50781;SDS011;36749;37.428;-121.972;2023-01-29T07:55:15;15.30;;;2.80;;
50781;SDS011;36749;37.428;-121.972;2023-01-29T07:57:41;10.45;;;2.53;;
50781;SDS011;36749;37.428;-121.972;2023-01-29T08:00:08;13.00;;;3.05;;
50781;SDS011;36749;37.428;-121.972;2023-01-29T08:02:36;10.25;;;2.40;;
50781;SDS011;36749;37.428;-121.972;2023-01-29T08:05:02;12.02;;;2.60;;
50781;SDS011;36749;37.428;-121.972;2023-01-29T08:07:28;16.13;;;2.53;;
50781;SDS011;36749;37.428;-121.972;2023-01-29T08:09:55;13.40;;;2.95;;
50781;SDS011;36749;37.428;-121.972;2023-01-29T08:12:21;13.57;;;2.88;;
50781;SDS011;36749;37.428;-121.972;2023-01-29T08:14:47;12.88;;;2.58;;
50781;SDS011;36749;37.428;-121.972;2023-01-29T08:17:14;12.82;;;2.75;;
50781;SDS011;36749;37.428;-121.972;2023-01-29T08:19:40;14.52;;;3.58;;
50781;SDS011;36749;37.428;-121.972;2023-01-29T08:22:06;16.05;;;3.28;;
50781;SDS011;36749;37.428;-121.972;2023-01-29T08:24:33;10.05;;;3.67;;
50781;SDS011;36749;37.428;-121.972;2023-01-29T08:26:59;20.00;;;3.03;;
50781;SDS011;36749;37.428;-121.972;2023-01-29T08:29:25;12.18;;;2.65;;
50781;SDS011;36749;37.428;-121.972;2023-01-29T08:31:51;13.93;;;3.03;;
50781;SDS011;36749;37.428;-121.972;2023-01-29T08:34:17;10.15;;;2.30;;
50781;SDS011;36749;37.428;-121.972;2023-01-29T08:36:44;17.02;;;3.10;;
50781;SDS011;36749;37.428;-121.972;2023-01-29T08:39:11;11.13;;;2.97;;
50781;SDS011;36749;37.428;-121.972;2023-01-29T08:41:37;11.05;;;3.08;;
50781;SDS011;36749;37.428;-121.972;2023-01-29T08:44:03;7.53;;;2.50;;
50781;SDS011;36749;37.428;-121.972;2023-01-29T08:46:30;11.05;;;2.67;;
50781;SDS011;36749;37.428;-121.972;2023-01-29T08:48:56;10.32;;;2.75;;
50781;SDS011;36749;37.428;-121.972;2023-01-29T08:51:23;9.55;;;2.92;;
50781;SDS011;36749;37.428;-121.972;2023-01-29T08:53:51;12.32;;;3.10;;
50781;SDS011;36749;37.428;-121.972;2023-01-29T08:56:17;16.75;;;4.35;;
50781;SDS011;36749;37.428;-121.972;2023-01-29T08:58:43;13.98;;;3.47;;
50781;SDS011;36749;37.428;-121.972;2023-01-29T09:01:11;10.00;;;2.95;;
50781;SDS011;36749;37.428;-121.972;2023-01-29T09:03:38;14.68;;;2.80;;
50781;SDS011;36749;37.428;-121.972;2023-01-29T09:06:09;14.73;;;2.53;;
50781;SDS011;36749;37.428;-121.972;2023-01-29T09:08:36;17.63;;;2.95;;
50781;SDS011;36749;37.428;-121.972;2023-01-29T09:11:03;12.07;;;2.58;;
50781;SDS011;36749;37.428;-121.972;2023-01-29T09:13:29;12.20;;;2.78;;
50781;SDS011;36749;37.428;-121.972;2023-01-29T09:15:59;10.60;;;2.50;;
50781;SDS011;36749;37.428;-121.972;2023-01-29T09:18:26;14.95;;;2.72;;
50781;SDS011;36749;37.428;-121.972;2023-01-29T09:20:53;7.50;;;1.92;;
50781;SDS011;36749;37.428;-121.972;2023-01-29T09:23:19;11.70;;;2.33;;
50781;SDS011;36749;37.428;-121.972;2023-01-29T09:25:46;16.63;;;3.03;;
50781;SDS011;36749;37.428;-121.972;2023-01-29T09:28:12;14.13;;;3.05;;
50781;SDS011;36749;37.428;-121.972;2023-01-29T09:30:43;17.63;;;2.90;;
50781;SDS011;36749;37.428;-121.972;2023-01-29T09:33:09;9.32;;;2.30;;
50781;SDS011;36749;37.428;-121.972;2023-01-29T09:35:36;10.45;;;2.08;;
50781;SDS011;36749;37.428;-121.972;2023-01-29T09:38:06;20.98;;;3.15;;
50781;SDS011;36749;37.428;-121.972;2023-01-29T09:43:48;11.13;;;2.15;;
50781;SDS011;36749;37.428;-121.972;2023-01-29T09:46:41;15.18;;;2.95;;
50781;SDS011;36749;37.428;-121.972;2023-01-29T09:49:21;11.73;;;2.78;;
50781;SDS011;36749;37.428;-121.972;2023-01-29T09:51:57;9.40;;;3.00;;
50781;SDS011;36749;37.428;-121.972;2023-01-29T09:54:32;11.07;;;2.30;;
50781;SDS011;36749;37.428;-121.972;2023-01-29T10:00:22;12.68;;;2.40;;
50781;SDS011;36749;37.428;-121.972;2023-01-29T10:11:39;8.40;;;1.92;;
50781;SDS011;36749;37.428;-121.972;2023-01-29T10:25:14;12.90;;;2.30;;
50781;SDS011;36749;37.428;-121.972;2023-01-29T10:27:45;14.75;;;2.53;;
50781;SDS011;36749;37.428;-121.972;2023-01-29T10:32:46;11.57;;;3.05;;
50781;SDS011;36749;37.428;-121.972;2023-01-29T10:35:19;9.75;;;1.90;;
50781;SDS011;36749;37.428;-121.972;2023-01-29T10:37:48;7.60;;;1.95;;
50781;SDS011;36749;37.428;-121.972;2023-01-29T10:43:05;10.90;;;2.58;;
50781;SDS011;36749;37.428;-121.972;2023-01-29T11:02:17;8.57;;;2.08;;
50781;SDS011;36749;37.428;-121.972;2023-01-29T11:04:45;13.30;;;2.15;;
50781;SDS011;36749;37.428;-121.972;2023-01-29T11:07:12;8.30;;;1.65;;
50781;SDS011;36749;37.428;-121.972;2023-01-29T11:09:41;9.18;;;2.33;;
50781;SDS011;36749;37.428;-121.972;2023-01-29T11:12:20;14.60;;;2.47;;
50781;SDS011;36749;37.428;-121.972;2023-01-29T11:14:52;7.57;;;1.70;;
50781;SDS011;36749;37.428;-121.972;2023-01-29T11:17:23;8.55;;;2.22;;
50781;SDS011;36749;37.428;-121.972;2023-01-29T11:19:51;8.93;;;1.70;;
50781;SDS011;36749;37.428;-121.972;2023-01-29T11:22:22;9.63;;;2.70;;
50781;SDS011;36749;37.428;-121.972;2023-01-29T11:27:56;13.13;;;2.50;;
50781;SDS011;36749;37.428;-121.972;2023-01-29T11:30:28;10.77;;;2.72;;
50781;SDS011;36749;37.428;-121.972;2023-01-29T11:33:06;12.90;;;2.40;;
50781;SDS011;36749;37.428;-121.972;2023-01-29T11:35:35;8.85;;;1.60;;
50781;SDS011;36749;37.428;-121.972;2023-01-29T11:38:22;6.93;;;1.65;;
50781;SDS011;36749;37.428;-121.972;2023-01-29T11:40:48;7.20;;;1.40;;
50781;SDS011;36749;37.428;-121.972;2023-01-29T11:43:28;6.57;;;1.85;;
50781;SDS011;36749;37.428;-121.972;2023-01-29T11:45:59;8.68;;;2.42;;
50781;SDS011;36749;37.428;-121.972;2023-01-29T11:48:43;11.82;;;2.10;;
50781;SDS011;36749;37.428;-121.972;2023-01-29T11:51:22;7.47;;;1.80;;
50781;SDS011;36749;37.428;-121.972;2023-01-29T11:53:53;7.68;;;2.40;;
50781;SDS011;36749;37.428;-121.972;2023-01-29T12:01:40;7.05;;;1.73;;
50781;SDS011;36749;37.428;-121.972;2023-01-29T12:04:22;11.73;;;2.05;;
50781;SDS011;36749;37.428;-121.972;2023-01-29T12:06:49;9.63;;;2.17;;
50781;SDS011;36749;37.428;-121.972;2023-01-29T12:09:21;10.73;;;1.92;;
50781;SDS011;36749;37.428;-121.972;2023-01-29T12:11:50;14.43;;;2.20;;
50781;SDS011;36749;37.428;-121.972;2023-01-29T12:14:25;6.78;;;2.25;;
50781;SDS011;36749;37.428;-121.972;2023-01-29T12:17:12;10.93;;;2.50;;
50781;SDS011;36749;37.428;-121.972;2023-01-29T12:19:49;8.35;;;1.67;;
50781;SDS011;36749;37.428;-121.972;2023-01-29T12:25:08;12.18;;;2.53;;
50781;SDS011;36749;37.428;-121.972;2023-01-29T12:28:03;9.10;;;2.17;;
50781;SDS011;36749;37.428;-121.972;2023-01-29T12:30:54;9.43;;;2.15;;
50781;SDS011;36749;37.428;-121.972;2023-01-29T12:33:28;8.27;;;2.50;;
50781;SDS011;36749;37.428;-121.972;2023-01-29T12:36:12;8.77;;;1.90;;
50781;SDS011;36749;37.428;-121.972;2023-01-29T12:38:45;6.70;;;2.05;;
50781;SDS011;36749;37.428;-121.972;2023-01-29T12:44:20;12.80;;;2.13;;
50781;SDS011;36749;37.428;-121.972;2023-01-29T12:46:49;7.00;;;2.03;;
50781;SDS011;36749;37.428;-121.972;2023-01-29T12:49:21;6.15;;;2.45;;
50781;SDS011;36749;37.428;-121.972;2023-01-29T12:51:57;8.23;;;1.80;;
50781;SDS011;36749;37.428;-121.972;2023-01-29T12:54:38;13.40;;;2.15;;
50781;SDS011;36749;37.428;-121.972;2023-01-29T13:00:17;9.13;;;2.13;;
50781;SDS011;36749;37.428;-121.972;2023-01-29T13:03:13;5.63;;;1.77;;
50781;SDS011;36749;37.428;-121.972;2023-01-29T13:05:54;8.50;;;1.90;;
50781;SDS011;36749;37.428;-121.972;2023-01-29T13:11:00;10.88;;;2.95;;
50781;SDS011;36749;37.428;-121.972;2023-01-29T13:16:20;5.47;;;1.88;;
50781;SDS011;36749;37.428;-121.972;2023-01-29T13:18:51;8.80;;;1.90;;
50781;SDS011;36749;37.428;-121.972;2023-01-29T13:21:29;9.98;;;2.38;;
50781;SDS011;36749;37.428;-121.972;2023-01-29T13:24:03;6.55;;;1.80;;
50781;SDS011;36749;37.428;-121.972;2023-01-29T13:26:35;8.98;;;1.75;;
50781;SDS011;36749;37.428;-121.972;2023-01-29T13:29:02;9.40;;;2.58;;
50781;SDS011;36749;37.428;-121.972;2023-01-29T13:31:38;4.40;;;1.65;;
50781;SDS011;36749;37.428;-121.972;2023-01-29T13:36:56;5.88;;;1.50;;
50781;SDS011;36749;37.428;-121.972;2023-01-29T13:41:58;6.00;;;1.52;;
50781;SDS011;36749;37.428;-121.972;2023-01-29T13:44:26;6.47;;;1.35;;
50781;SDS011;36749;37.428;-121.972;2023-01-29T13:47:10;5.70;;;1.67;;
50781;SDS011;36749;37.428;-121.972;2023-01-29T13:50:17;13.65;;;1.98;;
50781;SDS011;36749;37.428;-121.972;2023-01-29T13:52:54;7.13;;;2.65;;
50781;SDS011;36749;37.428;-121.972;2023-01-29T13:55:27;10.00;;;1.80;;
50781;SDS011;36749;37.428;-121.972;2023-01-29T13:58:03;5.53;;;2.03;;
50781;SDS011;36749;37.428;-121.972;2023-01-29T14:07:55;4.32;;;1.35;;
50781;SDS011;36749;37.428;-121.972;2023-01-29T14:10:24;4.40;;;1.35;;
50781;SDS011;36749;37.428;-121.972;2023-01-29T14:12:52;5.80;;;1.23;;
50781;SDS011;36749;37.428;-121.972;2023-01-29T14:15:24;6.82;;;2.15;;
50781;SDS011;36749;37.428;-121.972;2023-01-29T14:20:29;5.55;;;1.73;;
50781;SDS011;36749;37.428;-121.972;2023-01-29T14:23:22;5.68;;;1.60;;
50781;SDS011;36749;37.428;-121.972;2023-01-29T14:25:53;10.05;;;2.00;;
50781;SDS011;36749;37.428;-121.972;2023-01-29T14:28:22;11.00;;;2.58;;
50781;SDS011;36749;37.428;-121.972;2023-01-29T14:30:49;5.18;;;1.75;;
50781;SDS011;36749;37.428;-121.972;2023-01-29T14:33:23;8.73;;;1.80;;
50781;SDS011;36749;37.428;-121.972;2023-01-29T14:35:57;6.03;;;1.73;;
50781;SDS011;36749;37.428;-121.972;2023-01-29T14:38:25;3.60;;;1.35;;
50781;SDS011;36749;37.428;-121.972;2023-01-29T14:41:00;6.57;;;1.70;;
50781;SDS011;36749;37.428;-121.972;2023-01-29T14:43:28;6.43;;;1.45;;
50781;SDS011;36749;37.428;-121.972;2023-01-29T14:45:54;6.20;;;1.90;;
50781;SDS011;36749;37.428;-121.972;2023-01-29T14:48:58;8.98;;;1.98;;
50781;SDS011;36749;37.428;-121.972;2023-01-29T14:51:25;7.72;;;1.55;;
50781;SDS011;36749;37.428;-121.972;2023-01-29T14:53:54;8.80;;;1.90;;
50781;SDS011;36749;37.428;-121.972;2023-01-29T14:56:33;4.97;;;1.50;;
50781;SDS011;36749;37.428;-121.972;2023-01-29T15:01:57;3.97;;;1.25;;
50781;SDS011;36749;37.428;-121.972;2023-01-29T15:04:28;3.65;;;1.20;;
50781;SDS011;36749;37.428;-121.972;2023-01-29T15:07:13;3.28;;;0.98;;
50781;SDS011;36749;37.428;-121.972;2023-01-29T15:09:45;12.05;;;1.90;;
50781;SDS011;36749;37.428;-121.972;2023-01-29T15:14:56;5.25;;;1.30;;
50781;SDS011;36749;37.428;-121.972;2023-01-29T15:17:31;7.95;;;1.50;;
50781;SDS011;36749;37.428;-121.972;2023-01-29T15:20:27;6.65;;;1.60;;
50781;SDS011;36749;37.428;-121.972;2023-01-29T15:22:56;4.88;;;1.75;;
50781;SDS011;36749;37.428;-121.972;2023-01-29T15:25:22;7.78;;;1.50;;
50781;SDS011;36749;37.428;-121.972;2023-01-29T15:27:49;2.67;;;1.00;;
50781;SDS011;36749;37.428;-121.972;2023-01-29T15:30:20;4.28;;;1.20;;
50781;SDS011;36749;37.428;-121.972;2023-01-29T15:32:48;5.47;;;1.20;;
50781;SDS011;36749;37.428;-121.972;2023-01-29T15:40:41;5.72;;;1.40;;
50781;SDS011;36749;37.428;-121.972;2023-01-29T15:43:35;5.72;;;1.27;;
50781;SDS011;36749;37.428;-121.972;2023-01-29T15:46:04;5.75;;;1.85;;
50781;SDS011;36749;37.428;-121.972;2023-01-29T15:48:38;6.50;;;1.58;;
50781;SDS011;36749;37.428;-121.972;2023-01-29T15:51:07;10.82;;;1.42;;
50781;SDS011;36749;37.428;-121.972;2023-01-29T15:53:37;6.45;;;1.35;;
50781;SDS011;36749;37.428;-121.972;2023-01-29T15:56:07;4.97;;;1.35;;
50781;SDS011;36749;37.428;-121.972;2023-01-29T15:58:35;4.22;;;1.10;;
50781;SDS011;36749;37.428;-121.972;2023-01-29T16:01:02;8.35;;;1.98;;
50781;SDS011;36749;37.428;-121.972;2023-01-29T16:03:29;5.20;;;1.23;;
50781;SDS011;36749;37.428;-121.972;2023-01-29T16:05:57;3.33;;;1.60;;
50781;SDS011;36749;37.428;-121.972;2023-01-29T16:08:24;5.55;;;1.50;;
50781;SDS011;36749;37.428;-121.972;2023-01-29T16:10:52;3.63;;;1.33;;
50781;SDS011;36749;37.428;-121.972;2023-01-29T16:13:21;4.95;;;1.88;;
50781;SDS011;36749;37.428;-121.972;2023-01-29T16:15:59;8.77;;;1.92;;
50781;SDS011;36749;37.428;-121.972;2023-01-29T16:18:32;4.18;;;1.50;;
50781;SDS011;36749;37.428;-121.972;2023-01-29T16:21:02;3.30;;;1.13;;
50781;SDS011;36749;37.428;-121.972;2023-01-29T16:23:34;5.60;;;1.33;;
50781;SDS011;36749;37.428;-121.972;2023-01-29T16:26:05;3.28;;;1.50;;
50781;SDS011;36749;37.428;-121.972;2023-01-29T16:28:38;6.05;;;1.45;;
50781;SDS011;36749;37.428;-121.972;2023-01-29T16:31:07;7.13;;;1.73;;
50781;SDS011;36749;37.428;-121.972;2023-01-29T16:33:35;4.30;;;1.27;;
50781;SDS011;36749;37.428;-121.972;2023-01-29T16:36:07;5.38;;;1.52;;
50781;SDS011;36749;37.428;-121.972;2023-01-29T16:38:50;8.13;;;1.50;;
50781;SDS011;36749;37.428;-121.972;2023-01-29T16:43:53;8.13;;;2.00;;
50781;SDS011;36749;37.428;-121.972;2023-01-29T16:46:34;7.90;;;1.70;;
50781;SDS011;36749;37.428;-121.972;2023-01-29T16:49:01;11.13;;;1.95;;
50781;SDS011;36749;37.428;-121.972;2023-01-29T16:51:45;8.13;;;2.47;;
50781;SDS011;36749;37.428;-121.972;2023-01-29T16:54:12;5.93;;;1.90;;
50781;SDS011;36749;37.428;-121.972;2023-01-29T16:56:44;9.60;;;1.85;;
50781;SDS011;36749;37.428;-121.972;2023-01-29T16:59:37;4.38;;;1.83;;
50781;SDS011;36749;37.428;-121.972;2023-01-29T17:02:09;8.93;;;1.85;;
50781;SDS011;36749;37.428;-121.972;2023-01-29T17:04:45;7.55;;;1.88;;
50781;SDS011;36749;37.428;-121.972;2023-01-29T17:07:14;7.47;;;2.25;;
50781;SDS011;36749;37.428;-121.972;2023-01-29T17:09:50;4.22;;;1.40;;
50781;SDS011;36749;37.428;-121.972;2023-01-29T17:12:20;8.27;;;1.63;;